Aktuální počasí v Tlučné 

Teplota -4.5 °C
Minimální teplota -4.8 °C Maximální teplota -3.6 °C
Teplota rosného bodu -6.8 °C Pocitová teplota -8.1 °C
Tlak 1029.1 hPa
Směr a rychlost větru NE 3.0 m/s
» 3.3 m/s
vlhkost 84.1 %
Teplota 0.0  mm/h
SlunceUV0.55 dnes zítra
↑ 07:55 ↑ 07:54
↓ 16:40 ↓ 16:41
   
Měsíc dnes zítra
↓ 10:54 ↓ 11:18
↑ 23:45
   
  LKLN Metar
  LKLN Metar
2017/01/18 07:00
LKLN 180700Z AUTO 04003KT 340V090 9999 OVC027 M05/M07 Q1036
Rychlost a směr větru 340° < 40° > 90°
5.6 km/h
--
10 km
32805.1 ft
Zataženo (823 m)
Teplota -5 °C
Rosný bod -7°C
 
Tlak 1036 hPa
777.1 mmHg
 
  YR.no meteogram
  YR.no meteogram
Meteogram YR.no
  IN-Pocasi.cz
  IN-Pocasi.cz
In-Pocasi logo




  PocasiIdnes     CHMI     MeteoPress     Radar     Radar2  


  Valid XHTML 1.0 Transitional  


Provozni a servisni denik

Popis

ČKD / FAQ